Time;durP1;ratioP1;P1;durP2;ratioP2;P2;SDS_P1;SDS_P2;PMS_P1;PMS_P2;Temp;Humidity;BMP_temperature;BMP_pressure;BME280_temperature;BME280_humidity;BME280_pressure;Samples;Min_cycle;Max_cycle;Signal;HPM_P1;HPM_P2
2022/06/22 00:01:00;;;;;;;4.55;3.20;;;;;;;26.42;62.43;99466.91;5113616;28;20676;-75
2022/06/22 00:03:27;;;;;;;11.93;2.80;;;;;;;26.29;62.58;99471.25;5113259;28;20197;-74
2022/06/22 00:05:55;;;;;;;7.05;3.28;;;;;;;26.18;62.63;99457.72;5090376;28;20234;-74
2022/06/22 00:08:26;;;;;;;6.68;2.97;;;;;;;26.09;62.47;99437.81;5104095;28;20197;-76
2022/06/22 00:10:56;;;;;;;9.93;3.17;;;;;;;26.12;62.95;99459.75;5112099;28;20193;-74
2022/06/22 00:13:27;;;;;;;11.77;3.35;;;;;;;26.27;62.84;99479.28;5112896;28;20205;-73
2022/06/22 00:16:00;;;;;;;8.45;3.58;;;;;;;26.17;64.02;99477.22;5112915;28;20217;-75
2022/06/22 00:18:32;;;;;;;5.25;3.38;;;;;;;26.02;65.37;99463.88;5113160;28;20194;-75
2022/06/22 00:21:02;;;;;;;5.78;3.42;;;;;;;26.03;65.43;99484.22;5113183;28;20662;-74
2022/06/22 00:23:37;;;;;;;5.50;3.00;;;;;;;26.11;64.93;99476.63;5112734;28;20212;-75
2022/06/22 00:26:16;;;;;;;6.32;3.53;;;;;;;25.73;65.70;99430.16;5112585;28;20192;-74
2022/06/22 00:28:57;;;;;;;5.43;3.10;;;;;;;25.96;65.92;99480.19;5112424;28;20201;-74
2022/06/22 00:31:32;;;;;;;4.53;2.70;;;;;;;25.91;66.60;99481.38;5113206;28;20208;-74
2022/06/22 00:34:04;;;;;;;6.13;2.95;;;;;;;25.76;66.25;99442.41;5112322;28;20193;-74
2022/06/22 00:36:37;;;;;;;3.60;3.22;;;;;;;25.86;66.36;99476.34;5105993;28;20224;-75
2022/06/22 00:39:19;;;;;;;2.80;2.60;;;;;;;25.86;66.22;99473.69;5112382;28;20698;-74
2022/06/22 00:41:50;;;;;;;5.03;3.30;;;;;;;25.67;66.64;99467.72;5112711;28;20198;-74
2022/06/22 00:44:20;;;;;;;6.47;2.90;;;;;;;25.69;66.82;99465.81;5112624;28;20189;-74
2022/06/22 00:46:55;;;;;;;3.92;3.28;;;;;;;25.44;66.24;99417.66;5112423;28;20212;-74
2022/06/22 00:49:23;;;;;;;4.82;2.97;;;;;;;25.69;64.67;99447.22;5112118;28;20201;-76
2022/06/22 00:51:51;;;;;;;6.30;3.03;;;;;;;25.66;64.75;99471.28;5112843;28;20193;-75
2022/06/22 00:54:25;;;;;;;4.82;3.25;;;;;;;25.63;65.50;99455.53;5112167;28;20757;-75
2022/06/22 00:56:59;;;;;;;5.18;3.13;;;;;;;25.60;64.78;99450.41;5111584;28;20228;-75
2022/06/22 00:59:34;;;;;;;6.88;3.45;;;;;;;25.22;64.19;99380.00;5111941;28;20208;-75
2022/06/22 01:02:11;;;;;;;7.25;2.88;;;;;;;25.78;63.32;99473.28;5112222;28;20192;-74
2022/06/22 01:04:44;;;;;;;10.75;3.60;;;;;;;25.79;63.19;99464.34;5112122;28;20197;-73
2022/06/22 01:07:19;;;;;;;5.10;3.10;;;;;;;25.73;63.06;99474.47;5111809;28;20202;-76
2022/06/22 01:09:51;;;;;;;3.17;2.70;;;;;;;25.55;63.83;99468.38;5111375;28;20212;-74
2022/06/22 01:12:25;;;;;;;12.80;3.47;;;;;;;25.64;63.32;99478.50;5111253;28;20193;-75
2022/06/22 01:15:01;;;;;;;5.85;3.63;;;;;;;25.63;62.83;99468.81;5111687;28;20200;-74
2022/06/22 01:17:43;;;;;;;15.88;3.25;;;;;;;25.44;63.34;99476.06;5092029;28;20189;-75
2022/06/22 01:20:15;;;;;;;4.05;3.30;;;;;;;25.51;63.69;99482.78;5092298;28;20198;-75
2022/06/22 01:23:03;;;;;;;3.60;3.10;;;;;;;25.48;64.41;99482.91;5098778;28;20198;-75
2022/06/22 01:25:48;;;;;;;7.55;3.17;;;;;;;25.40;64.81;99485.16;5075845;28;20713;-75
2022/06/22 01:28:17;;;;;;;6.93;3.25;;;;;;;25.30;65.32;99494.53;5112133;28;20240;-75
2022/06/22 01:30:48;;;;;;;4.60;3.30;;;;;;;25.11;66.08;99484.09;5111930;28;20208;-75
2022/06/22 01:33:19;;;;;;;9.38;3.15;;;;;;;24.83;66.12;99430.75;5111736;28;20285;-75
2022/06/22 01:35:46;;;;;;;8.23;3.22;;;;;;;25.03;66.84;99486.28;5112199;28;20213;-75
2022/06/22 01:38:24;;;;;;;4.57;3.35;;;;;;;25.11;66.78;99490.22;5092477;28;20189;-75
2022/06/22 01:41:03;;;;;;;6.57;3.22;;;;;;;24.95;67.83;99488.47;5112214;28;20276;-74
2022/06/22 01:43:37;;;;;;;7.15;2.90;;;;;;;24.96;67.62;99491.06;5076381;28;20574;-74
2022/06/22 01:46:12;;;;;;;6.07;3.03;;;;;;;24.96;66.60;99488.41;5111828;28;20193;-74
2022/06/22 01:48:44;;;;;;;8.60;3.10;;;;;;;24.95;66.61;99496.44;5111642;28;20749;-75
2022/06/22 01:51:32;;;;;;;10.98;3.45;;;;;;;24.73;66.77;99461.34;5111747;28;20208;-76
2022/06/22 01:54:04;;;;;;;6.63;3.55;;;;;;;24.78;66.46;99485.84;5111680;28;20217;-75
2022/06/22 01:56:39;;;;;;;7.38;3.05;;;;;;;24.74;67.48;99474.53;5111794;28;20228;-75
2022/06/22 01:59:20;;;;;;;5.07;3.10;;;;;;;24.74;66.93;99478.97;5111404;28;20736;-73
2022/06/22 02:01:52;;;;;;;8.10;3.30;;;;;;;24.68;67.28;99478.34;5111300;28;20201;-73
2022/06/22 02:04:26;;;;;;;13.70;3.45;;;;;;;24.55;69.30;99484.38;5110549;28;20291;-74
2022/06/22 02:09:58;;;;;;;4.00;3.58;;;;;;;24.32;71.61;99467.00;5110674;28;20671;-74
2022/06/22 02:12:30;;;;;;;4.75;3.17;;;;;;;24.04;73.83;99480.72;5091951;28;20193;-74
2022/06/22 02:15:07;;;;;;;9.30;3.25;;;;;;;24.13;73.82;99485.63;5108444;28;20205;-74
2022/06/22 02:17:40;;;;;;;7.97;3.20;;;;;;;24.05;74.70;99485.09;5111357;28;20204;-74
2022/06/22 02:20:37;;;;;;;8.10;3.25;;;;;;;24.08;74.16;99489.38;5111341;28;20205;-74
2022/06/22 02:23:10;;;;;;;6.38;3.50;;;;;;;23.81;75.29;99470.41;5111282;28;20315;-74
2022/06/22 02:25:43;;;;;;;5.10;3.35;;;;;;;23.88;75.56;99479.78;5111324;28;20586;-74
2022/06/22 02:28:09;;;;;;;4.40;3.13;;;;;;;23.42;77.47;99467.03;5110667;28;20201;-74
2022/06/22 02:30:39;;;;;;;5.57;3.53;;;;;;;23.75;76.52;99488.41;5111396;28;20208;-74
2022/06/22 02:33:08;;;;;;;5.80;3.30;;;;;;;23.57;75.14;99461.88;5111512;28;20201;-75
2022/06/22 02:35:38;;;;;;;13.27;3.60;;;;;;;23.83;75.39;99497.66;5111738;28;20243;-74
2022/06/22 02:38:08;;;;;;;12.23;3.45;;;;;;;23.85;74.66;99492.31;5110765;28;20221;-74
2022/06/22 02:46:12;;;;;;;2.75;2.65;;;;;;;23.99;73.49;99495.13;5109950;28;20200;-74
2022/06/22 02:48:42;;;;;;;6.05;3.67;;;;;;;23.94;74.49;99491.84;5075909;28;20185;-75
2022/06/22 02:51:17;;;;;;;6.95;3.15;;;;;;;23.86;75.99;99501.97;5111178;28;20628;-73
2022/06/22 02:53:45;;;;;;;11.27;3.72;;;;;;;23.74;77.02;99478.72;5111367;28;20232;-74
2022/06/22 02:56:16;;;;;;;8.38;4.10;;;;;;;23.83;77.92;99483.59;5110214;28;20221;-76
2022/06/22 02:58:45;;;;;;;5.35;3.35;;;;;;;23.82;78.38;99498.63;5109438;28;20197;-75
2022/06/22 03:01:17;;;;;;;10.70;4.05;;;;;;;23.94;78.65;99507.72;5111087;28;20198;-75
2022/06/22 03:03:51;;;;;;;7.25;3.67;;;;;;;23.93;80.10;99498.09;5113131;28;20197;-76
2022/06/22 03:06:21;;;;;;;8.00;4.07;;;;;;;24.01;79.30;99494.13;5114286;28;20683;-73
2022/06/22 03:08:50;;;;;;;5.72;4.25;;;;;;;24.28;80.60;99513.13;5114494;28;20200;-72
2022/06/22 03:11:18;;;;;;;4.50;3.75;;;;;;;24.23;78.37;99511.63;5113665;28;20193;-72
2022/06/22 03:13:49;;;;;;;6.35;3.35;;;;;;;24.52;76.98;99511.91;5114075;28;20283;-73
2022/06/22 03:16:26;;;;;;;10.45;3.30;;;;;;;25.50;76.25;99529.69;5113387;28;20217;-72
2022/06/22 03:18:55;;;;;;;8.35;3.90;;;;;;;26.12;68.88;99523.53;5114322;28;20614;-76
2022/06/22 03:21:22;;;;;;;6.50;3.63;;;;;;;26.61;65.75;99526.03;5114828;28;20592;-72
2022/06/22 03:23:53;;;;;;;4.32;3.65;;;;;;;26.90;63.23;99533.13;5114160;28;20190;-72
2022/06/22 03:26:22;;;;;;;5.40;3.60;;;;;;;26.86;63.62;99528.09;5114060;28;20256;-73
2022/06/22 03:28:55;;;;;;;3.97;3.58;;;;;;;26.98;62.71;99517.56;5113941;28;20197;-73
2022/06/22 03:31:27;;;;;;;5.10;3.50;;;;;;;27.43;60.57;99526.31;5114359;28;20233;-73
2022/06/22 03:33:58;;;;;;;12.73;4.05;;;;;;;27.97;58.42;99544.13;5114375;28;20204;-72
2022/06/22 03:36:32;;;;;;;5.63;3.58;;;;;;;28.60;56.23;99532.00;5114236;28;20227;-73
2022/06/22 03:39:07;;;;;;;5.93;3.63;;;;;;;28.86;54.90;99539.94;5078669;28;20213;-73
2022/06/22 03:41:38;;;;;;;5.03;3.63;;;;;;;29.20;53.25;99532.28;5114328;28;20655;-72
2022/06/22 03:44:09;;;;;;;7.00;3.67;;;;;;;28.52;58.76;99553.84;5113846;28;20212;-72
2022/06/22 03:46:43;;;;;;;4.43;4.00;;;;;;;28.40;60.65;99558.19;5112869;28;20201;-74
2022/06/22 03:49:18;;;;;;;5.85;3.60;;;;;;;27.64;64.65;99522.31;5112335;28;20193;-73
2022/06/22 03:51:51;;;;;;;5.25;4.10;;;;;;;27.87;65.07;99540.34;5111231;28;20200;-73
2022/06/22 03:54:26;;;;;;;10.90;4.93;;;;;;;28.13;61.28;99551.16;5113614;28;20229;-73
2022/06/22 03:56:58;;;;;;;9.10;4.68;;;;;;;28.89;58.42;99563.78;5113622;28;20251;-73
2022/06/22 03:59:26;;;;;;;11.48;4.40;;;;;;;29.66;55.77;99557.47;5113725;28;20205;-73
2022/06/22 04:01:58;;;;;;;14.07;5.88;;;;;;;29.30;56.78;99544.06;5112580;28;20201;-73
2022/06/22 04:04:25;;;;;;;5.93;4.65;;;;;;;30.11;54.56;99557.81;5099024;28;20230;-73
2022/06/22 04:06:55;;;;;;;8.27;4.38;;;;;;;30.37;52.13;99554.03;5113133;28;20208;-73
2022/06/22 04:09:24;;;;;;;11.07;4.70;;;;;;;30.97;50.90;99556.59;5113697;28;20232;-73
2022/06/22 04:11:57;;;;;;;13.65;4.82;;;;;;;31.50;49.27;99557.75;5113361;28;20197;-73
2022/06/22 04:14:31;;;;;;;7.88;5.07;;;;;;;31.47;49.72;99553.50;5112736;28;20204;-73
2022/06/22 04:17:04;;;;;;;4.85;4.30;;;;;;;31.64;49.78;99552.22;5112677;28;20615;-72
2022/06/22 04:19:36;;;;;;;6.00;4.35;;;;;;;32.50;47.52;99554.91;5112131;28;20267;-71
2022/06/22 04:22:08;;;;;;;10.25;4.00;;;;;;;32.25;47.32;99555.28;5113449;28;20200;-71
2022/06/22 04:24:43;;;;;;;9.02;3.92;;;;;;;32.50;46.49;99554.91;5112536;28;20648;-71
2022/06/22 04:27:14;;;;;;;4.25;3.70;;;;;;;32.19;46.90;99550.41;5112507;28;20189;-74
2022/06/22 04:29:46;;;;;;;5.05;3.58;;;;;;;32.29;44.16;99545.97;5112825;28;20192;-73
2022/06/22 04:32:21;;;;;;;9.18;4.10;;;;;;;32.72;45.12;99544.09;5113157;28;20303;-73
2022/06/22 04:34:55;;;;;;;9.48;3.85;;;;;;;33.61;42.77;99553.38;5112695;28;20699;-73
2022/06/22 04:37:29;;;;;;;6.57;4.38;;;;;;;33.12;42.43;99557.69;5112390;28;20228;-74
2022/06/22 04:40:13;;;;;;;10.43;4.32;;;;;;;32.93;43.96;99562.91;5112158;28;20205;-72
2022/06/22 04:42:41;;;;;;;8.65;5.13;;;;;;;32.62;45.09;99570.03;5112678;28;20563;-72
2022/06/22 04:45:24;;;;;;;10.35;6.63;;;;;;;32.76;44.53;99572.41;5076819;28;20225;-72
2022/06/22 04:47:53;;;;;;;11.00;6.28;;;;;;;33.27;44.79;99567.13;5112176;28;20619;-72
2022/06/22 04:50:20;;;;;;;11.98;5.80;;;;;;;33.44;42.91;99565.66;5112334;28;20193;-72
2022/06/22 04:52:50;;;;;;;17.40;5.80;;;;;;;33.85;42.44;99535.94;5112260;28;20264;-73
2022/06/22 04:55:20;;;;;;;12.05;6.22;;;;;;;33.85;41.72;99562.03;5112113;28;20189;-73
2022/06/22 04:57:50;;;;;;;16.50;6.07;;;;;;;33.81;41.99;99561.44;5112604;28;20228;-73
2022/06/22 05:00:20;;;;;;;10.30;5.72;;;;;;;33.79;42.43;99573.31;5077176;28;20196;-73
2022/06/22 05:02:51;;;;;;;7.10;5.18;;;;;;;33.62;42.39;99556.00;5111718;28;20207;-74
2022/06/22 05:05:22;;;;;;;11.55;6.13;;;;;;;34.11;41.66;99591.94;5111553;28;20197;-74
2022/06/22 05:07:53;;;;;;;10.13;5.72;;;;;;;34.16;40.94;99603.19;5111671;28;20205;-73
2022/06/22 05:10:28;;;;;;;8.05;5.35;;;;;;;33.70;40.79;99572.31;5111799;28;20224;-73
2022/06/22 05:12:57;;;;;;;9.10;5.35;;;;;;;33.30;41.47;99590.19;5112021;28;20200;-74
2022/06/22 05:15:27;;;;;;;11.63;5.55;;;;;;;32.78;43.03;99591.09;5112243;28;20661;-73
2022/06/22 05:17:56;;;;;;;7.97;5.00;;;;;;;33.07;42.14;99586.75;5111548;28;20221;-73
2022/06/22 05:20:31;;;;;;;7.13;4.90;;;;;;;33.03;41.83;99601.47;5109958;28;20201;-73
2022/06/22 05:23:01;;;;;;;17.23;4.85;;;;;;;33.34;41.56;99605.06;5111830;28;20200;-73
2022/06/22 05:25:29;;;;;;;15.07;4.63;;;;;;;32.74;42.29;99597.72;5110772;28;20200;-73
2022/06/22 05:28:02;;;;;;;10.88;3.97;;;;;;;33.23;41.25;99581.81;5075887;28;20197;-73
2022/06/22 05:30:34;;;;;;;9.93;4.18;;;;;;;33.35;40.83;99579.91;5111982;28;20253;-72
2022/06/22 05:33:05;;;;;;;13.20;4.60;;;;;;;33.58;40.88;99557.22;5111998;28;20193;-72
2022/06/22 05:35:38;;;;;;;6.07;4.30;;;;;;;32.63;41.78;99595.94;5111575;28;20204;-72
2022/06/22 05:38:07;;;;;;;9.57;4.47;;;;;;;32.39;43.46;99611.34;5108797;28;20221;-72
2022/06/22 05:40:36;;;;;;;6.05;4.43;;;;;;;32.40;43.65;99611.22;5111857;28;20262;-72
2022/06/22 05:43:03;;;;;;;8.77;4.40;;;;;;;32.14;43.70;99604.44;5111411;28;20225;-71
2022/06/22 05:45:39;;;;;;;8.93;4.55;;;;;;;31.87;44.80;99595.94;5111668;28;20219;-70
2022/06/22 05:48:09;;;;;;;7.20;4.15;;;;;;;30.60;45.38;99593.34;5111594;28;20200;-71
2022/06/22 05:50:42;;;;;;;7.57;4.68;;;;;;;30.64;46.36;99591.31;5111468;28;20192;-71
2022/06/22 05:53:14;;;;;;;7.68;4.68;;;;;;;30.97;46.33;99604.81;5111014;28;20256;-71
2022/06/22 05:55:49;;;;;;;12.30;4.40;;;;;;;31.22;45.09;99617.19;5111011;28;20193;-71
2022/06/22 05:58:24;;;;;;;8.77;4.82;;;;;;;31.36;45.32;99603.56;5110755;28;20232;-71
2022/06/22 06:00:53;;;;;;;6.90;4.10;;;;;;;30.85;45.53;99614.63;5043999;28;20193;-71
2022/06/22 06:03:38;;;;;;;6.72;4.50;;;;;;;30.59;45.83;99564.88;5110736;28;20215;-71
2022/06/22 06:06:11;;;;;;;11.95;4.47;;;;;;;30.54;46.16;99620.56;5111162;28;20200;-71
2022/06/22 06:08:43;;;;;;;8.55;4.78;;;;;;;30.14;45.73;99616.44;5110826;28;20212;-71
2022/06/22 06:11:16;;;;;;;6.40;4.10;;;;;;;29.55;47.13;99589.44;5110990;28;20641;-71
2022/06/22 06:13:47;;;;;;;10.15;5.60;;;;;;;29.82;45.86;99594.66;5110858;28;20261;-71
2022/06/22 06:16:20;;;;;;;10.43;5.10;;;;;;;29.73;43.80;99590.81;5110940;28;20204;-70
2022/06/22 06:18:49;;;;;;;9.88;5.03;;;;;;;29.04;44.00;99591.22;5110637;28;20201;-71
2022/06/22 06:21:20;;;;;;;7.80;4.75;;;;;;;29.26;44.27;99588.81;5110889;28;20672;-70
2022/06/22 06:23:52;;;;;;;9.10;4.95;;;;;;;29.24;43.91;99589.88;5091759;28;20196;-71
2022/06/22 06:29:20;;;;;;;14.55;5.28;;;;;;;28.55;43.95;99577.66;5110711;28;20278;-71
2022/06/22 06:32:00;;;;;;;9.75;5.25;;;;;;;28.25;43.88;99561.88;5110844;28;20189;-71
2022/06/22 06:34:32;;;;;;;9.32;5.15;;;;;;;28.94;43.74;99590.16;5111228;28;20229;-70
2022/06/22 06:37:06;;;;;;;11.32;5.50;;;;;;;29.29;43.29;99593.09;5077041;28;20708;-70
2022/06/22 06:39:37;;;;;;;9.90;4.95;;;;;;;29.21;41.92;99595.44;5078842;28;20208;-70
2022/06/22 06:42:23;;;;;;;11.82;5.00;;;;;;;28.92;42.81;99590.28;5114904;28;20201;-70
2022/06/22 06:44:52;;;;;;;7.63;5.25;;;;;;;28.52;42.37;99589.41;5114936;28;20205;-70
2022/06/22 06:47:25;;;;;;;12.40;5.72;;;;;;;28.43;43.73;99583.81;5079479;28;20257;-71
2022/06/22 06:49:58;;;;;;;9.18;4.63;;;;;;;28.30;43.58;99591.75;5114708;28;20197;-71
2022/06/22 06:52:34;;;;;;;5.65;3.92;;;;;;;27.84;43.51;99588.50;5114464;28;20233;-70
2022/06/22 06:55:06;;;;;;;6.53;3.05;;;;;;;27.88;42.52;99576.72;5114526;28;20197;-70
2022/06/22 06:57:34;;;;;;;5.78;4.05;;;;;;;27.39;43.85;99588.72;5114501;28;20735;-72
2022/06/22 07:00:04;;;;;;;6.97;4.32;;;;;;;27.19;44.65;99579.25;5079519;28;20274;-72
2022/06/22 07:02:35;;;;;;;8.95;3.50;;;;;;;27.69;45.79;99575.28;5114309;28;20669;-71
2022/06/22 07:05:06;;;;;;;14.98;5.13;;;;;;;27.89;44.52;99599.75;5114405;28;20669;-71
2022/06/22 07:07:40;;;;;;;4.72;3.45;;;;;;;27.48;43.51;99567.72;5114427;28;20677;-70
2022/06/22 07:10:12;;;;;;;7.45;3.80;;;;;;;27.42;43.77;99572.53;5114467;28;20201;-71
2022/06/22 07:12:44;;;;;;;6.05;3.90;;;;;;;27.71;45.71;99576.94;5078460;28;20424;-71
2022/06/22 07:15:16;;;;;;;9.35;3.25;;;;;;;28.05;42.05;99572.94;5114345;28;20214;-71
2022/06/22 07:17:45;;;;;;;9.80;3.08;;;;;;;28.18;40.67;99573.91;5114063;28;20235;-71
2022/06/22 07:20:18;;;;;;;5.82;2.50;;;;;;;28.14;38.76;99564.41;5114089;28;20208;-70
2022/06/22 07:22:52;;;;;;;6.95;2.28;;;;;;;28.19;39.24;99570.28;5078687;28;20337;-71
2022/06/22 07:25:25;;;;;;;3.72;2.13;;;;;;;28.20;37.61;99585.31;5113964;28;20673;-71
2022/06/22 07:27:56;;;;;;;4.18;2.35;;;;;;;27.93;38.66;99573.75;5113987;28;20205;-71
2022/06/22 07:30:28;;;;;;;3.05;2.30;;;;;;;28.37;38.58;99589.53;5113925;28;20220;-71
2022/06/22 07:33:03;;;;;;;3.05;2.78;;;;;;;28.36;38.96;99594.00;5113861;28;20193;-70
2022/06/22 07:35:36;;;;;;;4.30;2.55;;;;;;;28.34;39.43;99592.41;5113975;28;20197;-70
2022/06/22 07:38:12;;;;;;;4.03;2.10;;;;;;;28.11;39.09;99593.06;5113751;28;20233;-70
2022/06/22 07:41:18;;;;;;;4.60;2.00;;;;;;;28.22;39.02;99593.22;5113795;28;20274;-70
2022/06/22 07:43:27;;;;;;;6.30;2.05;;;;;;;28.40;38.09;99590.19;5113695;28;20497;-70
2022/06/22 07:45:54;;;;;;;5.90;1.80;;;;;;;28.22;37.34;99582.56;5113485;28;20685;-70
2022/06/22 07:48:23;;;;;;;3.22;1.60;;;;;;;28.12;36.14;99581.44;5112888;28;20201;-70
2022/06/22 07:50:54;;;;;;;1.55;1.30;;;;;;;28.36;34.68;99598.53;5113645;28;20193;-70
2022/06/22 07:53:31;;;;;;;3.05;1.60;;;;;;;28.23;34.71;99590.44;5113878;28;20240;-70
2022/06/22 07:56:04;;;;;;;2.40;1.80;;;;;;;28.45;35.20;99582.75;5113701;28;20200;-69
2022/06/22 07:58:35;;;;;;;4.22;1.70;;;;;;;28.34;34.98;99587.94;5113401;28;20314;-69
2022/06/22 08:01:09;;;;;;;9.43;1.40;;;;;;;28.31;33.52;99584.63;5113665;28;20224;-70
2022/06/22 08:03:42;;;;;;;2.72;1.67;;;;;;;28.07;34.47;99571.91;5094274;28;20193;-70
2022/06/22 08:06:13;;;;;;;2.70;1.60;;;;;;;28.26;34.78;99581.38;5113636;28;20201;-69
2022/06/22 08:08:48;;;;;;;6.35;1.92;;;;;;;28.54;35.12;99581.25;5113084;28;20206;-69
2022/06/22 08:11:22;;;;;;;3.33;1.63;;;;;;;28.22;35.61;99575.41;5113346;28;20196;-70
2022/06/22 08:13:54;;;;;;;2.53;1.55;;;;;;;28.70;34.59;99592.69;5113274;27;20700;-70
2022/06/22 08:16:27;;;;;;;15.25;2.60;;;;;;;28.71;33.95;99593.53;5113135;28;20208;-69
2022/06/22 08:18:55;;;;;;;7.72;2.50;;;;;;;28.86;32.95;99598.69;5078342;28;20221;-70
2022/06/22 08:21:23;;;;;;;5.75;1.73;;;;;;;28.69;32.48;99601.63;5027516;28;20254;-70
2022/06/22 08:23:53;;;;;;;5.57;1.35;;;;;;;28.99;32.45;99596.91;5113247;28;20205;-70
2022/06/22 08:26:23;;;;;;;1.73;1.40;;;;;;;28.95;32.22;99584.72;5112963;28;20197;-70
2022/06/22 08:28:51;;;;;;;1.40;1.30;;;;;;;28.60;31.46;99582.69;5112716;28;20688;-70
2022/06/22 08:31:18;;;;;;;3.80;1.40;;;;;;;28.69;31.73;99584.75;5112799;28;20204;-70
2022/06/22 08:33:52;;;;;;;1.65;1.40;;;;;;;28.82;31.11;99573.19;5111074;28;20204;-69
2022/06/22 08:36:26;;;;;;;2.92;1.45;;;;;;;28.78;30.99;99577.00;5108668;28;20205;-69
2022/06/22 08:39:01;;;;;;;1.85;1.67;;;;;;;28.80;30.82;99579.56;5097210;28;20772;-73
2022/06/22 08:41:43;;;;;;;6.45;1.20;;;;;;;28.84;30.29;99595.25;5110764;28;20689;-72
2022/06/22 08:44:22;;;;;;;1.75;1.48;;;;;;;28.61;30.96;99585.25;5076575;28;20193;-72
2022/06/22 08:47:11;;;;;;;3.00;1.50;;;;;;;28.75;31.32;99571.88;5112559;28;20197;-72
2022/06/22 08:50:03;;;;;;;2.88;1.30;;;;;;;29.26;30.82;99574.56;5104182;28;20202;-72
2022/06/22 08:52:41;;;;;;;1.95;1.30;;;;;;;29.46;30.49;99568.75;5109771;28;20311;-79
2022/06/22 08:55:25;;;;;;;2.08;1.85;;;;;;;29.37;30.18;99561.34;5112443;28;20569;-72
2022/06/22 08:58:05;;;;;;;1.23;1.15;;;;;;;29.21;30.33;99566.03;5104736;28;20241;-72
2022/06/22 09:00:41;;;;;;;3.40;1.52;;;;;;;29.13;30.70;99573.72;5111064;28;20193;-72
2022/06/22 09:03:32;;;;;;;1.27;1.17;;;;;;;29.15;30.68;99571.78;5077933;28;20197;-72
2022/06/22 09:06:22;;;;;;;1.50;1.40;;;;;;;29.17;30.74;99570.75;5111849;28;20202;-72
2022/06/22 09:09:15;;;;;;;4.43;1.70;;;;;;;29.45;30.90;99564.34;5100086;28;20677;-73
2022/06/22 09:11:53;;;;;;;4.82;1.55;;;;;;;29.41;30.99;99570.88;5091542;28;20285;-72
2022/06/22 09:14:50;;;;;;;4.22;1.52;;;;;;;29.52;30.16;99562.94;5074639;28;20220;-72
2022/06/22 09:17:39;;;;;;;1.85;1.40;;;;;;;29.46;29.86;99555.38;4978498;28;20725;-72
2022/06/22 09:20:33;;;;;;;2.22;1.70;;;;;;;29.29;29.95;99572.56;4976462;28;20205;-73
2022/06/22 09:23:04;;;;;;;8.32;2.03;;;;;;;29.48;30.19;99550.78;4885003;29;20716;-73
2022/06/22 09:25:39;;;;;;;5.85;1.30;;;;;;;29.68;30.54;99568.91;4931591;29;20298;-73
2022/06/22 09:28:12;;;;;;;3.08;1.60;;;;;;;29.77;29.06;99560.22;4929105;29;20237;-73
2022/06/22 09:30:58;;;;;;;2.30;1.45;;;;;;;30.07;29.97;99572.38;4886971;29;20204;-73
2022/06/22 09:33:47;;;;;;;1.90;1.80;;;;;;;29.74;29.26;99532.88;4912516;29;20199;-74
2022/06/22 09:36:38;;;;;;;3.13;1.52;;;;;;;30.11;28.84;99571.19;4878568;29;20208;-73
2022/06/22 09:39:24;;;;;;;1.48;1.38;;;;;;;30.10;29.40;99572.16;4920840;29;20228;-74
2022/06/22 09:42:07;;;;;;;3.33;1.60;;;;;;;30.13;29.84;99555.88;4914742;29;20219;-73
2022/06/22 09:45:09;;;;;;;2.92;1.80;;;;;;;30.41;30.22;99574.25;4923179;29;20203;-73
2022/06/22 09:48:13;;;;;;;4.05;1.58;;;;;;;30.65;29.79;99580.47;4845245;29;20223;-73
2022/06/22 09:57:11;;;;;;;7.03;1.90;;;;;;;30.44;29.78;99571.38;4874808;29;20209;-73
2022/06/22 10:00:03;;;;;;;3.47;1.60;;;;;;;30.23;30.18;99562.25;4881302;29;20283;-72
2022/06/22 10:03:00;;;;;;;2.42;1.67;;;;;;;29.71;30.34;99547.31;4893382;29;20204;-72
2022/06/22 10:06:00;;;;;;;3.40;1.52;;;;;;;29.63;29.93;99583.56;4819482;29;20215;-73
2022/06/22 10:08:41;;;;;;;3.08;1.42;;;;;;;29.74;30.91;99567.63;4819586;29;20207;-73
2022/06/22 10:11:20;;;;;;;2.58;1.55;;;;;;;29.68;30.18;99566.22;4819553;29;20206;-74
2022/06/22 10:14:19;;;;;;;2.20;1.42;;;;;;;29.79;29.28;99571.66;4823023;29;20731;-73
2022/06/22 10:17:04;;;;;;;1.50;1.40;;;;;;;29.81;29.83;99567.06;4823256;29;20213;-74
2022/06/22 10:19:43;;;;;;;5.60;1.70;;;;;;;29.69;29.80;99575.97;4823077;29;20227;-73
2022/06/22 10:22:32;;;;;;;3.47;1.33;;;;;;;29.55;30.42;99568.06;4877793;29;20203;-74
2022/06/22 10:25:24;;;;;;;2.35;1.30;;;;;;;29.67;30.81;99543.16;4959182;28;20597;-73
2022/06/22 10:28:18;;;;;;;2.33;1.30;;;;;;;29.75;30.21;99572.84;4993112;28;20205;-73
2022/06/22 10:30:52;;;;;;;1.55;1.45;;;;;;;29.73;30.67;99571.25;5029730;28;20230;-74
2022/06/22 10:33:47;;;;;;;1.25;1.25;;;;;;;29.68;30.41;99565.41;5052042;28;20210;-73
2022/06/22 10:36:42;;;;;;;3.40;1.30;;;;;;;29.72;31.04;99562.38;5052128;28;20283;-74
2022/06/22 10:39:27;;;;;;;2.67;1.85;;;;;;;29.83;30.75;99581.16;5052219;28;20266;-73
2022/06/22 10:45:09;;;;;;;5.07;1.60;;;;;;;29.94;31.28;99567.06;5115381;28;20211;-73
2022/06/22 10:48:15;;;;;;;3.47;1.75;;;;;;;30.45;30.42;99575.75;5114934;28;20209;-75
2022/06/22 10:50:57;;;;;;;1.55;1.45;;;;;;;30.04;31.41;99551.22;5053180;28;20199;-74
2022/06/22 10:54:08;;;;;;;1.95;1.20;;;;;;;30.07;31.05;99561.69;5051807;28;20231;-73
2022/06/22 10:57:02;;;;;;;4.88;1.50;;;;;;;30.39;30.70;99552.13;4973348;28;20681;-74
2022/06/22 11:00:05;;;;;;;6.25;1.60;;;;;;;30.38;31.43;99563.78;4898039;29;20320;-76
2022/06/22 11:03:02;;;;;;;6.00;1.35;;;;;;;30.14;30.95;99554.91;4916116;29;20204;-73
2022/06/22 11:05:49;;;;;;;3.00;1.38;;;;;;;30.49;30.75;99563.88;4916126;29;20214;-74
2022/06/22 11:12:08;;;;;;;4.20;1.60;;;;;;;30.76;30.49;99545.69;4789069;29;20302;-75
2022/06/22 11:47:56;;;;;;;11.52;3.78;;;;;;;30.87;30.51;99527.00;4853929;29;20436;-74
2022/06/22 11:50:32;;;;;;;7.10;2.75;;;;;;;31.03;30.74;99518.66;4868408;29;20208;-75
2022/06/22 11:53:15;;;;;;;6.13;2.03;;;;;;;31.01;30.54;99506.34;4928078;29;20244;-75
2022/06/22 11:55:46;;;;;;;4.32;1.88;;;;;;;30.92;30.58;99516.78;4933545;29;20667;-75
2022/06/22 11:58:32;;;;;;;4.82;1.73;;;;;;;31.03;29.57;99515.13;4887429;29;20769;-74
2022/06/22 12:01:33;;;;;;;2.45;1.40;;;;;;;30.83;29.66;99505.91;4944091;28;20198;-74
2022/06/22 12:04:30;;;;;;;5.22;1.95;;;;;;;31.16;30.34;99521.22;4972143;28;20208;-74
2022/06/22 12:07:32;;;;;;;3.60;1.40;;;;;;;31.16;29.72;99500.63;4914649;29;20215;-73
2022/06/22 12:10:13;;;;;;;5.22;1.70;;;;;;;30.88;30.03;99488.53;4960832;28;20641;-73
2022/06/22 12:12:56;;;;;;;4.80;1.60;;;;;;;31.03;29.42;99505.28;4990013;28;20207;-73
2022/06/22 12:15:43;;;;;;;1.70;1.60;;;;;;;30.85;29.69;99486.09;4990666;28;20201;-73
2022/06/22 12:18:26;;;;;;;1.90;1.45;;;;;;;31.15;28.99;99504.28;4989728;28;20236;-73
2022/06/22 12:21:14;;;;;;;3.33;1.60;;;;;;;31.28;29.22;99514.91;5024350;28;20208;-74
2022/06/22 12:23:51;;;;;;;4.03;1.40;;;;;;;30.60;28.11;99485.44;5050023;28;20214;-74
2022/06/22 12:26:29;;;;;;;1.90;1.30;;;;;;;31.10;28.86;99511.00;5049484;28;20199;-74
2022/06/22 12:29:16;;;;;;;2.47;1.42;;;;;;;31.06;28.62;99507.69;5049850;28;20560;-74
2022/06/22 12:31:48;;;;;;;2.78;1.40;;;;;;;31.34;28.49;99511.72;5050082;28;20199;-73
2022/06/22 12:34:25;;;;;;;1.55;1.45;;;;;;;31.50;28.67;99519.41;5000667;28;20576;-73
2022/06/22 12:36:58;;;;;;;2.38;1.48;;;;;;;31.65;28.62;99511.00;5050154;28;20202;-73
2022/06/22 12:39:28;;;;;;;3.20;1.60;;;;;;;31.41;28.43;99472.75;5050018;28;20230;-74
2022/06/22 12:42:09;;;;;;;5.45;1.73;;;;;;;31.56;28.10;99498.34;5050266;28;20201;-74
2022/06/22 12:45:06;;;;;;;2.72;1.63;;;;;;;31.39;28.83;99504.19;5081559;28;20206;-73
2022/06/22 12:47:53;;;;;;;1.73;1.63;;;;;;;31.24;28.15;99508.06;5092743;28;20189;-73
2022/06/22 12:50:55;;;;;;;2.65;1.40;;;;;;;31.67;28.64;99517.09;5092187;28;20729;-74
2022/06/22 12:53:31;;;;;;;3.45;1.60;;;;;;;31.13;28.74;99511.59;5049087;28;20234;-73
2022/06/22 12:56:06;;;;;;;4.43;1.63;;;;;;;31.32;29.29;99497.59;5050085;28;20212;-74
2022/06/22 12:58:43;;;;;;;2.00;1.50;;;;;;;31.11;28.70;99508.19;5049633;28;20250;-75
2022/06/22 13:01:10;;;;;;;1.65;1.20;;;;;;;31.16;29.47;99505.13;5049606;28;20202;-74
2022/06/22 13:03:43;;;;;;;4.25;1.70;;;;;;;31.49;28.82;99521.22;5050002;28;20206;-73
2022/06/22 13:06:10;;;;;;;4.88;1.42;;;;;;;31.51;28.87;99527.31;5049746;28;20195;-73
2022/06/22 13:08:39;;;;;;;2.35;1.42;;;;;;;31.62;29.24;99515.75;5024935;28;20199;-74
2022/06/22 13:11:15;;;;;;;1.75;1.40;;;;;;;31.57;29.17;99508.06;5029465;28;20203;-73